Cazaux (BA 120) Air Base

LFBC · Landes, Nouvelle-Aquitaine, Francja

Historia METAR LFBC · Cazaux (BA 120) Air Base

Poniżej widzisz METAR-y z ostatnich kilku dni. Wybierz rok, aby przeglądać starsze METAR-y, począwszy od roku 2007.

9 grudnia 2022

Czas Kod Pogoda Temp. Widoczność Sufit Wiatr METAR/SPECI
09:30
L
5 °C 5 km 300 ft 030° 030° 6 kt METAR LFBC 090830Z AUTO 03006KT 5000 BR OVC003 05/05 Q1000 TEMPO DZ
09:00
L
5 °C 4,2 km 300 ft 030° 030° 8 kt METAR LFBC 090800Z AUTO 03008KT 4200 BR OVC003 05/05 Q1000 BECMG 5000 NSW
08:30
L
6 °C 5 km 300 ft 030° 030° 6 kt METAR LFBC 090730Z AUTO 03006KT 5000 BR OVC003 06/06 Q1000 NOSIG
08:00
L
6 °C 4,1 km 300 ft 030° 030° 7 kt METAR LFBC 090700Z AUTO 03007KT 4100 -DZ BR OVC003 06/06 Q0999 BECMG 5000 NSW
07:30
L
6 °C 5 km 300 ft 030° 030° 5 kt METAR LFBC 090630Z AUTO 03005KT 5000 BR OVC003 06/06 Q0999 NOSIG
07:00
L
6 °C 5 km 300 ft 030° 030° 5 kt METAR LFBC 090600Z AUTO 03005KT 5000 -DZ BR OVC003 06/06 Q0999 NOSIG
06:30
L
6 °C 5 km 300 ft 020° 020° 5 kt METAR LFBC 090530Z AUTO 02005KT 5000 -RA BR OVC003 06/06 Q0999
06:00
L
6 °C 5 km 300 ft 030° 030° 6 kt METAR LFBC 090500Z AUTO 03006KT 5000 -RA BR BKN003 OVC012 06/06 Q0999
05:30
L
6 °C 5 km 300 ft 030° 030° 7 kt METAR LFBC 090430Z AUTO 03007KT 5000 -RA BR BKN003 OVC012 06/06 Q0999
05:00
L
6 °C 6 km 300 ft 030° 030° 6 kt METAR LFBC 090400Z AUTO 03006KT 6000 -RA OVC003 06/06 Q0998
04:30
L
6 °C 5 km 300 ft 030° 030° 7 kt METAR LFBC 090330Z AUTO 03007KT 5000 -RA BR OVC003 06/06 Q0998
04:00
L
6 °C 5 km 300 ft 040° 040° 8 kt METAR LFBC 090300Z AUTO 04008KT 5000 -RA BR BKN003 BKN011 OVC021 06/06 Q0999
03:30
L
6 °C 5 km 300 ft 030° 030° 7 kt METAR LFBC 090230Z AUTO 03007KT 5000 RA BR BKN003/// OVC037/// //////TCU 06/06 Q0999
03:00
L
7 °C 4,7 km 300 ft 050° 050° 6 kt METAR LFBC 090200Z AUTO 05006KT 4700 -RA BR BKN003/// OVC009/// //////TCU 07/07 Q0999
02:30
I
7 °C 4,9 km 1.100 ft 050° 050° 4 kt METAR LFBC 090130Z AUTO 05004KT 4900 RA BR SCT003/// BKN011/// OVC041/// ///TCU 07/07 Q0999
02:00
L
7 °C 5 km 300 ft 050° 050° 4 kt METAR LFBC 090100Z AUTO 05004KT 5000 -RA BR OVC003/// ///TCU 07/07 Q0999
01:30
L
7 °C 5 km 300 ft 040° 040° 6 kt METAR LFBC 090030Z AUTO 04006KT 5000 -DZ BR BKN003 OVC007 07/07 Q0999
01:00
L
7 °C 6 km 400 ft 050° 050° 6 kt METAR LFBC 090000Z AUTO 05006KT 6000 OVC004 07/07 Q0999
00:30
L
7 °C 6 km 400 ft 060° 060° 4 kt METAR LFBC 082330Z AUTO 06004KT 6000 BKN004 OVC056 07/07 Q0999
00:00
L
7 °C 6 km 400 ft 040° 040° 5 kt METAR LFBC 082300Z AUTO 04005KT 6000 BKN004 BKN019 BKN029 07/07 Q0999

8 grudnia 2022

Czas Kod Pogoda Temp. Widoczność Sufit Wiatr METAR/SPECI
23:30
L
7 °C 6 km 400 ft 050° 050° 4 kt METAR LFBC 082230Z AUTO 05004KT 6000 BKN004 BKN008 BKN038 07/07 Q1000
23:00
M
7 °C 6 km 2.200 ft 050° 050° 5 kt METAR LFBC 082200Z AUTO 05005KT 6000 -RA SCT004 BKN022 BKN050 07/07 Q1000 BECMG 4000 RA BKN005 OVC045
22:30
L
7 °C 6 km 400 ft 060° 060° 5 kt METAR LFBC 082130Z AUTO 06005KT 6000 -RA BKN004/// BKN026/// OVC054/// //////TCU 07/07 Q1000 BECMG 4000 RA BKN005 OVC045
22:00
L
7 °C 6 km 300 ft 060° 060° 6 kt METAR LFBC 082100Z AUTO 06006KT 6000 -RA BKN003/// OVC009/// //////TCU 07/07 Q1000 BECMG 4000 RA BKN005 OVC045
21:30
L
7 °C 5 km 400 ft 060° 060° 6 kt METAR LFBC 082030Z AUTO 06006KT 5000 -RA BR BKN004/// BKN008/// BKN039/// ///TCU 07/07 Q1000 BECMG RA BKN005 OVC045
21:00
I
7 °C 5 km 500 ft 070° 070° 5 kt METAR LFBC 082000Z AUTO 07005KT 5000 RA BR BKN005/// BKN042/// OVC052/// //////TCU 07/07 Q1001 BECMG SCT010 OVC045
20:30
I
7 °C 6 km 500 ft 080° 080° 4 kt METAR LFBC 081930Z AUTO 08004KT 6000 -RA BKN005/// OVC042/// //////TCU 07/07 Q1001 BECMG 4000 RA SCT010 OVC045
20:00
M
7 °C 7 km 4.500 ft 080° 080° 7 kt METAR LFBC 081900Z AUTO 08007KT 7000 -RA OVC045/// ///TCU 07/07 Q1001 BECMG 4000 RA SCT010 OVC045
19:30
V
7 °C 8 km 4.900 ft 090° 090° 7 kt METAR LFBC 081830Z AUTO 09007KT 8000 -DZ FEW006 OVC049 07/07 Q1001 BECMG 4000 RA
19:00
V
7 °C 9 km 5.400 ft 080° 080° 7 kt METAR LFBC 081800Z AUTO 08007KT 050V110 9000 -DZ FEW007 BKN054 OVC066 07/07 Q1001 BECMG 4000 RA
18:30
I
7 °C 6 km 500 ft 080° 080° 6 kt METAR LFBC 081730Z AUTO 08006KT 6000 -RA BKN005 BKN012 BKN027 07/07 Q1001 BECMG 4000 RA SCT010 OVC045
18:00
M
7 °C 6 km 5.200 ft 080° 080° 4 kt METAR LFBC 081700Z AUTO 08004KT 050V110 6000 -RA FEW005 OVC052 07/07 Q1002 BECMG 4000 RA
17:30
M
7 °C 7 km - 050° 050° 6 kt METAR LFBC 081630Z AUTO 05006KT 7000 -RA NSC 07/07 Q1002 BECMG 4000 RA
17:00
V
7 °C 8 km 6.200 ft 050° 050° 6 kt METAR LFBC 081600Z AUTO 05006KT 8000 -RA FEW025 BKN062 OVC072 07/07 Q1002 BECMG 4000 RA
16:30
M
7 °C 7 km - 040° 040° 5 kt METAR LFBC 081530Z AUTO 04005KT 7000 RA //////TCU 07/07 Q1002 BECMG 4000 RA SCT010 OVC045
16:00
M
7 °C 6 km - 060° 060° 6 kt METAR LFBC 081500Z AUTO 06006KT 6000 RA //////TCU 07/07 Q1002 BECMG 4000 RA SCT010 OVC045
15:30
V
8 °C 10 km+ - 080° 080° 7 kt METAR LFBC 081430Z AUTO 08007KT 9999 -RA //////TCU 08/06 Q1002 BECMG 4000 RA SCT010 OVC045
15:00
V
7 °C 10 km+ - 080° 080° 6 kt METAR LFBC 081400Z AUTO 08006KT 9999 -RA ///TCU 07/06 Q1002 BECMG 4000 RA SCT010 OVC045
14:30
V
7 °C 10 km+ - 070° 070° 6 kt METAR LFBC 081330Z AUTO 07006KT 9999 RA ///TCU 07/06 Q1003 BECMG 4000 RA SCT010 OVC045
14:00
V
8 °C 10 km+ - 070° 070° 6 kt METAR LFBC 081300Z AUTO 07006KT 9999 //////TCU 08/05 Q1003 BECMG 4000 RA SCT010 OVC045
13:30
V
8 °C 10 km+ - 060° 060° 7 kt METAR LFBC 081230Z AUTO 06007KT 9999 ///TCU 08/05 Q1003 BECMG 4000 RA SCT010 OVC045
13:00
V
7 °C 10 km+ - 060° 060° 7 kt METAR LFBC 081200Z AUTO 06007KT CAVOK 07/04 Q1003 BECMG 4000 RA
12:30
V
6 °C 10 km+ - 060° 060° 7 kt METAR LFBC 081130Z AUTO 06007KT CAVOK 06/04 Q1004 BECMG 4000 RA
12:00
V
6 °C 10 km+ - 060° 060° 7 kt METAR LFBC 081100Z AUTO 06007KT CAVOK 06/04 Q1005 NOSIG
11:30
V
5 °C 10 km+ - 060° 060° 6 kt METAR LFBC 081030Z AUTO 06006KT CAVOK 05/03 Q1005 NOSIG
11:00
V
5 °C 10 km+ - 060° 060° 6 kt METAR LFBC 081000Z AUTO 06006KT 020V080 CAVOK 05/03 Q1005 NOSIG
10:30
V
5 °C 10 km+ - 060° 060° 6 kt METAR LFBC 080930Z AUTO 06006KT CAVOK 05/03 Q1006 NOSIG
10:00
V
4 °C 10 km+ - 070° 070° 4 kt METAR LFBC 080900Z AUTO 07004KT 040V110 CAVOK 04/03 Q1006 NOSIG
09:30
V
4 °C 10 km+ - 050° 050° 6 kt METAR LFBC 080830Z AUTO 05006KT CAVOK 04/02 Q1006 NOSIG
09:00
V
3 °C 10 km+ - 050° 050° 4 kt METAR LFBC 080800Z AUTO 05004KT CAVOK 03/02 Q1006 NOSIG
08:30
V
3 °C 10 km+ - 060° 060° 3 kt METAR LFBC 080730Z AUTO 06003KT 040V100 CAVOK 03/02 Q1006 NOSIG
08:00
V
3 °C 10 km+ - 060° 060° 5 kt METAR LFBC 080700Z AUTO 06005KT 030V100 CAVOK 03/02 Q1006 NOSIG
07:30
V
4 °C 10 km+ - 050° 050° 6 kt METAR LFBC 080630Z AUTO 05006KT CAVOK 04/02 Q1007
07:00
V
3 °C 10 km+ - 050° 050° 6 kt METAR LFBC 080600Z AUTO 05006KT CAVOK 03/02 Q1007
06:30
V
4 °C 10 km+ - 040° 040° 5 kt METAR LFBC 080530Z AUTO 04005KT CAVOK 04/02 Q1007
06:00
V
3 °C 10 km+ - 050° 050° 4 kt METAR LFBC 080500Z AUTO 05004KT 030V100 CAVOK 03/02 Q1007
05:30
V
3 °C 10 km+ - 040° 040° 4 kt METAR LFBC 080430Z AUTO 04004KT 360V070 CAVOK 03/02 Q1008
05:00
V
3 °C 10 km+ - 010° 010° 4 kt METAR LFBC 080400Z AUTO 01004KT CAVOK 03/02 Q1008
04:30
V
3 °C 10 km+ - 020° 020° 5 kt METAR LFBC 080330Z AUTO 02005KT CAVOK 03/02 Q1008
04:00
V
4 °C 10 km+ - 020° 020° 4 kt METAR LFBC 080300Z AUTO 02004KT CAVOK 04/03 Q1009
03:30
V
4 °C 10 km+ - 060° 060° 3 kt METAR LFBC 080230Z AUTO 06003KT CAVOK 04/02 Q1009
03:00
V
4 °C 10 km+ - 020° 020° 3 kt METAR LFBC 080200Z AUTO 02003KT CAVOK 04/02 Q1010
02:30
V
4 °C 10 km+ - 030° 030° 4 kt METAR LFBC 080130Z AUTO 03004KT 360V060 CAVOK 04/02 Q1010
02:00
V
4 °C 10 km+ - 020° 020° 3 kt METAR LFBC 080100Z AUTO 02003KT 360V060 CAVOK 04/02 Q1010
01:30
V
4 °C 10 km+ - 030° 030° 3 kt METAR LFBC 080030Z AUTO 03003KT CAVOK 04/02 Q1011
01:00
V
4 °C 10 km+ - 020° 020° 3 kt METAR LFBC 080000Z AUTO 02003KT 360V060 CAVOK 04/02 Q1011
00:30
V
4 °C 10 km+ - 030° 030° 3 kt METAR LFBC 072330Z AUTO 03003KT CAVOK 04/02 Q1011
00:00
V
4 °C 10 km+ - 020° 020° 3 kt METAR LFBC 072300Z AUTO 02003KT CAVOK 04/03 Q1012

7 grudnia 2022

Czas Kod Pogoda Temp. Widoczność Sufit Wiatr METAR/SPECI
23:30
V
4 °C 10 km+ - Var Var 3 kt METAR LFBC 072230Z AUTO VRB03KT CAVOK 04/03 Q1012
23:00
V
4 °C 10 km+ - 030° 030° 5 kt METAR LFBC 072200Z AUTO 03005KT CAVOK 04/03 Q1012
22:30
V
5 °C 10 km+ - 360° 360° 4 kt METAR LFBC 072130Z AUTO 36004KT CAVOK 05/03 Q1012 NOSIG
22:00
V
5 °C 10 km+ - 040° 040° 5 kt METAR LFBC 072100Z AUTO 04005KT CAVOK 05/03 Q1012 NOSIG
21:30
V
5 °C 10 km+ - 020° 020° 4 kt METAR LFBC 072030Z AUTO 02004KT CAVOK 05/03 Q1012 TEMPO 2000 MIFG
21:00
V
5 °C 10 km+ - 030° 030° 5 kt METAR LFBC 072000Z AUTO 03005KT CAVOK 05/03 Q1013 NOSIG
20:30
V
5 °C 10 km+ - 030° 030° 5 kt METAR LFBC 071930Z AUTO 03005KT CAVOK 05/03 Q1013 NOSIG
20:00
V
5 °C 10 km+ - 030° 030° 5 kt METAR LFBC 071900Z AUTO 03005KT CAVOK 05/03 Q1013 NOSIG
19:30
V
5 °C 10 km+ - 020° 020° 6 kt METAR LFBC 071830Z AUTO 02006KT CAVOK 05/03 Q1013 NOSIG
19:00
V
5 °C 10 km+ - 030° 030° 4 kt METAR LFBC 071800Z AUTO 03004KT CAVOK 05/03 Q1013 NOSIG
18:30
V
5 °C 10 km+ - 030° 030° 4 kt METAR LFBC 071730Z AUTO 03004KT CAVOK 05/03 Q1013 NOSIG
18:00
V
6 °C 10 km+ - 030° 030° 4 kt METAR LFBC 071700Z AUTO 03004KT CAVOK 06/03 Q1013 NOSIG
17:30
V
7 °C 10 km+ - 050° 050° 5 kt METAR LFBC 071630Z AUTO 05005KT 030V090 CAVOK 07/03 Q1013 NOSIG
17:00
V
7 °C 10 km+ - 060° 060° 7 kt METAR LFBC 071600Z AUTO 06007KT CAVOK 07/03 Q1013 NOSIG
16:30
V
8 °C 10 km+ - 060° 060° 6 kt METAR LFBC 071530Z AUTO 06006KT CAVOK 08/03 Q1013 NOSIG
16:00
V
7 °C 10 km+ - 050° 050° 7 kt METAR LFBC 071500Z AUTO 05007KT 030V090 CAVOK 07/03 Q1014 NOSIG
15:30
V
7 °C 10 km+ - 050° 050° 7 kt METAR LFBC 071430Z AUTO 05007KT 010V080 CAVOK 07/03 Q1014 NOSIG
15:00
V
7 °C 10 km+ - 060° 060° 7 kt METAR LFBC 071400Z AUTO 06007KT CAVOK 07/02 Q1014 NOSIG
14:30
V
7 °C 10 km+ - 050° 050° 7 kt METAR LFBC 071330Z AUTO 05007KT 020V080 CAVOK 07/03 Q1014 NOSIG
14:00
V
6 °C 10 km+ - 040° 040° 6 kt METAR LFBC 071300Z AUTO 04006KT 020V080 CAVOK 06/03 Q1015 NOSIG
13:30
V
6 °C 10 km+ - 040° 040° 7 kt METAR LFBC 071230Z AUTO 04007KT 010V070 CAVOK 06/02 Q1015 NOSIG
13:00
V
6 °C 10 km+ - 040° 040° 6 kt METAR LFBC 071200Z AUTO 04006KT CAVOK 06/03 Q1016 NOSIG
12:30
V
5 °C 10 km+ - 040° 040° 7 kt METAR LFBC 071130Z AUTO 04007KT 020V080 CAVOK 05/03 Q1016 NOSIG
12:00
V
5 °C 10 km+ - 040° 040° 6 kt METAR LFBC 071100Z AUTO 04006KT CAVOK 05/02 Q1016 NOSIG
11:30
V
4 °C 10 km+ - 060° 060° 7 kt METAR LFBC 071030Z AUTO 06007KT 030V090 CAVOK 04/02 Q1017 NOSIG
11:00
V
4 °C 10 km+ - 050° 050° 8 kt METAR LFBC 071000Z AUTO 05008KT CAVOK 04/02 Q1017 NOSIG
10:30
V
3 °C 10 km+ 6.200 ft 050° 050° 6 kt METAR LFBC 070930Z AUTO 05006KT 9999 FEW006 BKN062 OVC080 03/02 Q1017 NOSIG
10:00
V
3 °C 10 km+ 6.200 ft 050° 050° 7 kt METAR LFBC 070900Z AUTO 05007KT 9999 FEW005 BKN062 OVC080 03/02 Q1017 NOSIG
09:30
V
3 °C 10 km+ 6.600 ft 060° 060° 6 kt METAR LFBC 070830Z AUTO 06006KT 9999 FEW005 BKN066 OVC076 03/02 Q1016 NOSIG
09:00
V
2 °C 9 km 6.600 ft 060° 060° 6 kt METAR LFBC 070800Z AUTO 06006KT 9000 FEW005 OVC066 02/02 Q1016 NOSIG
08:30
L
2 °C 8 km 400 ft 040° 040° 7 kt METAR LFBC 070730Z AUTO 04007KT 8000 BKN004 BKN066 OVC078 02/02 Q1016 BECMG FEW004
08:00
L
2 °C 7 km 400 ft 050° 050° 6 kt METAR LFBC 070700Z AUTO 05006KT 7000 OVC004 02/02 Q1016 TEMPO 3000 BR BECMG FEW004
07:30
L
2 °C 6 km 300 ft 060° 060° 5 kt METAR LFBC 070630Z AUTO 06005KT 6000 OVC003 02/02 Q1016 TEMPO 3000 BR BECMG FEW004
07:00
L
2 °C 4 km 200 ft 040° 040° 6 kt METAR LFBC 070600Z AUTO 04006KT 4000 BR OVC002 02/02 Q1016
06:30
L
2 °C 2,1 km - 060° 060° 5 kt METAR LFBC 070530Z AUTO 06005KT 2100 BR VV/// 02/02 Q1016
06:00
M
2 °C 6 km 4.800 ft 040° 040° 5 kt METAR LFBC 070500Z AUTO 04005KT 6000 FEW003 BKN048 02/02 Q1016
05:30
V
3 °C 8 km - 040° 040° 4 kt METAR LFBC 070430Z AUTO 04004KT 8000 NSC 03/02 Q1016
05:00
V
3 °C 9 km - 030° 030° 5 kt METAR LFBC 070400Z AUTO 03005KT 010V070 9000 NSC 03/02 Q1016
04:30
V
4 °C 10 km+ - 030° 030° 5 kt METAR LFBC 070330Z AUTO 03005KT CAVOK 04/03 Q1017
04:00
V
4 °C 10 km+ - 360° 360° 4 kt METAR LFBC 070300Z AUTO 36004KT CAVOK 04/02 Q1017
03:30
V
5 °C 10 km+ - 020° 020° 4 kt METAR LFBC 070230Z AUTO 02004KT CAVOK 05/04 Q1016
03:00
V
6 °C 10 km+ - 040° 040° 4 kt METAR LFBC 070200Z AUTO 04004KT CAVOK 06/04 Q1016
02:30
V
6 °C 10 km+ - 010° 010° 5 kt METAR LFBC 070130Z AUTO 01005KT CAVOK 06/04 Q1016
02:00
V
6 °C 10 km+ - 050° 050° 4 kt METAR LFBC 070100Z AUTO 05004KT CAVOK 06/04 Q1016
01:30
V
6 °C 10 km+ - 060° 060° 4 kt METAR LFBC 070030Z AUTO 06004KT CAVOK 06/04 Q1016
01:00
V
7 °C 10 km+ - 040° 040° 4 kt METAR LFBC 070000Z AUTO 04004KT CAVOK 07/04 Q1017
00:30
V
7 °C 10 km+ - 050° 050° 5 kt METAR LFBC 062330Z AUTO 05005KT CAVOK 07/04 Q1017
00:00
V
7 °C 10 km+ - 040° 040° 4 kt METAR LFBC 062300Z AUTO 04004KT CAVOK 07/04 Q1017

6 grudnia 2022

Czas Kod Pogoda Temp. Widoczność Sufit Wiatr METAR/SPECI
23:30
V
7 °C 10 km+ - 040° 040° 5 kt METAR LFBC 062230Z AUTO 04005KT CAVOK 07/04 Q1017
23:00
V
8 °C 10 km+ - 030° 030° 5 kt METAR LFBC 062200Z AUTO 03005KT CAVOK 08/05 Q1017
22:30
V
8 °C 10 km+ - 040° 040° 6 kt METAR LFBC 062130Z AUTO 04006KT CAVOK 08/05 Q1017 NOSIG
22:00
V
8 °C 10 km+ 7.200 ft 070° 070° 5 kt METAR LFBC 062100Z AUTO 07005KT 9999 FEW043 OVC072 08/05 Q1016 NOSIG
21:30
V
9 °C 10 km+ 4.400 ft 050° 050° 4 kt METAR LFBC 062030Z AUTO 05004KT 9999 OVC044 09/06 Q1017 NOSIG
21:00
V
9 °C 10 km+ 4.400 ft 040° 040° 4 kt METAR LFBC 062000Z AUTO 04004KT 9999 OVC044 09/06 Q1016 NOSIG
20:30
V
9 °C 10 km+ 4.300 ft 060° 060° 5 kt METAR LFBC 061930Z AUTO 06005KT 9999 BKN043 OVC076 09/06 Q1016 NOSIG
20:00
V
9 °C 10 km+ 4.400 ft 060° 060° 6 kt METAR LFBC 061900Z AUTO 06006KT 9999 OVC044 09/06 Q1016 NOSIG
19:30
V
9 °C 10 km+ 7.600 ft 040° 040° 4 kt METAR LFBC 061830Z AUTO 04004KT 9999 SCT044 OVC076 09/06 Q1016 NOSIG
19:00
V
10 °C 10 km+ - 040° 040° 4 kt METAR LFBC 061800Z AUTO 04004KT CAVOK 10/06 Q1016 NOSIG
18:30
V
10 °C 10 km+ - 040° 040° 3 kt METAR LFBC 061730Z AUTO 04003KT 010V070 CAVOK 10/06 Q1016 NOSIG
18:00
V
10 °C 10 km+ - 050° 050° 4 kt METAR LFBC 061700Z AUTO 05004KT CAVOK 10/06 Q1015 NOSIG
17:30
V
10 °C 10 km+ - 080° 080° 4 kt METAR LFBC 061630Z AUTO 08004KT CAVOK 10/07 Q1015 NOSIG
17:00
V
11 °C 10 km+ - 080° 080° 3 kt METAR LFBC 061600Z AUTO 08003KT CAVOK 11/07 Q1015 NOSIG
16:30
V
11 °C 10 km+ - 080° 080° 6 kt METAR LFBC 061530Z AUTO 08006KT CAVOK 11/07 Q1015 NOSIG
16:00
V
11 °C 10 km+ - 070° 070° 5 kt METAR LFBC 061500Z AUTO 07005KT CAVOK 11/06 Q1015 NOSIG
15:30
V
11 °C 10 km+ 6.000 ft 050° 050° 5 kt METAR LFBC 061430Z AUTO 05005KT 9999 SCT046 BKN060 OVC080 11/06 Q1015 NOSIG
15:00
V
11 °C 10 km+ - 090° 090° 5 kt METAR LFBC 061400Z AUTO 09005KT 050V110 CAVOK 11/07 Q1015 NOSIG
14:30
V
11 °C 10 km+ - 090° 090° 7 kt METAR LFBC 061330Z AUTO 09007KT CAVOK 11/06 Q1015 NOSIG
14:00
V
11 °C 10 km+ - 060° 060° 7 kt METAR LFBC 061300Z AUTO 06007KT CAVOK 11/06 Q1015 NOSIG
13:30
V
11 °C 10 km+ - 060° 060° 7 kt METAR LFBC 061230Z AUTO 06007KT CAVOK 11/06 Q1015 NOSIG
13:00
V
11 °C 10 km+ - 070° 070° 6 kt METAR LFBC 061200Z AUTO 07006KT CAVOK 11/06 Q1015 NOSIG
12:30
V
11 °C 10 km+ - 100° 100° 7 kt METAR LFBC 061130Z AUTO 10007KT CAVOK 11/06 Q1015 NOSIG
12:00
V
11 °C 10 km+ 7.000 ft 110° 110° 6 kt METAR LFBC 061100Z AUTO 11006KT 9999 FEW048 OVC070 11/06 Q1016 NOSIG
11:30
V
9 °C 10 km+ 4.600 ft 140° 140° 6 kt METAR LFBC 061030Z AUTO 14006KT 9999 BKN046 OVC054 09/05 Q1016 NOSIG
11:00
V
9 °C 10 km+ 4.500 ft 130° 130° 4 kt METAR LFBC 061000Z AUTO 13004KT 9999 OVC045 09/05 Q1016 NOSIG

My i strony trzecie śledzimy Twoje zachowanie internetowe na naszej stronie za pomocą plików cookie. Jeśli kontynuujesz, zakładamy, że zgadzasz się z naszymi polityka plików cookie.